Plato — 8PRX — position and weather

sailwx.info

Track history (hours):
 
Tides and Currents Weather Stations Pressure Air Temp Water Temp Dewpoint Dewpoint Depression Visibility Wind Speed Wind Dir Waves Ship Positions

Plato

Last reported at 2014-Sep-16 00:15 UTC. Time now 2014-Sep-16 00:59 UTC.
Position N 56°38' E 009°48'.

Length 88 m; draft 5.1 m.

Type: Ship. MMSI: 314189000.

Date/timePositionNaut miles runAvg speedWind from/ knotsBaromVisibWave heightAir tempDewpointWater temp
2014-Sep-16 00:15N 56°38' E 009°48'0 0.0
2014-Sep-15 12:16N 56°38' E 009°48'65 1.5
2014-Sep-13 15:13N 57°36' E 010°44'141 7.6
2014-Sep-12 20:33N 58°04' E 006°24'7 7.4
2014-Sep-12 19:33N 58°09' E 006°13'8 8.1
2014-Sep-12 18:33N 58°14' E 006°01'8 8.2
2014-Sep-12 17:33N 58°19' E 005°49'8 8.3
2014-Sep-12 16:33N 58°25' E 005°37'11 8.3
2014-Sep-12 15:16N 58°34' E 005°25'8 9.4
2014-Sep-12 14:22N 58°41' E 005°17'8 9.4
2014-Sep-12 13:33N 58°47' E 005°10'9 9.1
2014-Sep-12 12:33N 58°55' E 005°01'  
2014-Sep-09 20:30N 59°13' E 005°00'6 6.6
2014-Sep-09 19:33N 59°08' E 005°08'9 9.2
2014-Sep-09 18:33N 59°07' E 005°26'7 7.3
2014-Sep-09 17:33N 59°02' E 005°36'6 6.3
2014-Sep-09 16:33N 59°00' E 005°48'4 3.7
2014-Sep-09 15:32N 58°57' E 005°45'0 0.0
2014-Sep-09 14:31N 58°57' E 005°45'0 0.0
2014-Sep-09 13:33N 58°57' E 005°45'0 0.0
2014-Sep-09 12:33N 58°57' E 005°45'0 0.0
2014-Sep-09 11:32N 58°57' E 005°45'0 0.0
2014-Sep-09 10:32N 58°57' E 005°45'0 0.0
2014-Sep-09 09:33N 58°57' E 005°45'0 0.0
2014-Sep-09 08:32N 58°57' E 005°45'0 0.0
2014-Sep-09 07:32N 58°57' E 005°45'0 0.0
2014-Sep-09 06:32N 58°57' E 005°45'0 0.0
2014-Sep-09 05:31N 58°57' E 005°45'0 0.0
2014-Sep-09 04:31N 58°57' E 005°45'0 0.0
2014-Sep-09 03:31N 58°57' E 005°45'0 0.0
2014-Sep-09 02:33N 58°57' E 005°45'0 0.0
2014-Sep-09 01:32N 58°57' E 005°45'0 0.0
2014-Sep-09 00:31N 58°57' E 005°45'0 0.0
2014-Sep-08 23:32N 58°57' E 005°45'0 0.0
2014-Sep-08 22:33N 58°57' E 005°45'0 0.0
2014-Sep-08 21:31N 58°57' E 005°45'0 0.0
2014-Sep-08 20:33N 58°57' E 005°45'0 0.0
2014-Sep-08 19:32N 58°57' E 005°45'0 0.0
2014-Sep-08 18:32N 58°57' E 005°45'0 0.0
2014-Sep-08 17:33N 58°57' E 005°45'0 0.1
2014-Sep-08 16:32N 58°57' E 005°45'0 0.0
2014-Sep-08 15:31N 58°57' E 005°45'0 0.0
2014-Sep-08 14:31N 58°57' E 005°45'0 0.0
2014-Sep-08 13:33N 58°57' E 005°45'0 0.0
2014-Sep-08 12:33N 58°57' E 005°45'0 0.0
2014-Sep-08 11:32N 58°57' E 005°45'0 0.0
2014-Sep-08 10:31N 58°57' E 005°45'0 0.0
2014-Sep-08 09:31N 58°57' E 005°45'0 0.0
2014-Sep-08 08:33N 58°57' E 005°45'0 0.0
2014-Sep-08 07:33N 58°57' E 005°45'0 0.0
2014-Sep-08 06:32N 58°57' E 005°45'0 0.0
2014-Sep-08 05:31N 58°57' E 005°45'0 0.0
2014-Sep-08 04:31N 58°57' E 005°45'0 0.0
2014-Sep-08 03:33N 58°57' E 005°45'0 0.0
2014-Sep-08 02:33N 58°57' E 005°45'0 0.0
2014-Sep-08 01:32N 58°57' E 005°45'0 0.0
2014-Sep-08 00:31N 58°57' E 005°45'0 0.0
2014-Sep-07 23:31N 58°57' E 005°45'0 0.0
2014-Sep-07 22:33N 58°57' E 005°45'0 0.0
2014-Sep-07 21:33N 58°57' E 005°45'0 0.0
2014-Sep-07 20:32N 58°57' E 005°45'0 0.0
2014-Sep-07 19:31N 58°57' E 005°45'0 0.0
2014-Sep-07 18:31N 58°57' E 005°45'0 0.0
2014-Sep-07 17:33N 58°57' E 005°45'0 0.0
2014-Sep-07 16:33N 58°57' E 005°45'0 0.0
2014-Sep-07 15:32N 58°57' E 005°45'1 1.0
2014-Sep-07 14:33N 58°58' E 005°46'8 7.6
2014-Sep-07 13:33N 59°01' E 005°34'1010.5
2014-Sep-07 12:34N 58°51' E 005°31'8 7.6
2014-Sep-07 11:33N 58°44' E 005°25'18 8.5
2014-Sep-07 09:28N 58°27' E 005°33'9 9.8
2014-Sep-07 08:33N 58°19' E 005°43'1010.4
2014-Sep-07 07:33N 58°13' E 005°57'1111.2
2014-Sep-07 06:33N 58°05' E 006°13'85 8.2
2014-Sep-06 20:08N 58°15' E 008°54'59 9.7
2014-Sep-06 14:07N 58°54' E 010°18'5 9.7
2014-Sep-06 13:33N 58°57' E 010°26'9 9.0
2014-Sep-06 12:33N 59°04' E 010°38'7 7.3
2014-Sep-06 11:33N 59°11' E 010°40'1111.2
2014-Sep-06 10:33N 59°22' E 010°34'8 1.5
2014-Sep-06 05:29N 59°28' E 010°41'0 0.0
2014-Sep-06 04:13N 59°28' E 010°41'0 0.0
2014-Sep-06 03:31N 59°28' E 010°41'0 0.0
2014-Sep-06 02:33N 59°28' E 010°41'0 0.0
2014-Sep-06 01:17N 59°28' E 010°41'  
Track history (hours):
 
Tides and Currents Weather Stations Pressure Air Temp Water Temp Dewpoint Dewpoint Depression Visibility Wind Speed Wind Dir Waves Ship Positions

Plato

Last reported at 2014-Sep-16 00:15 UTC. Time now 2014-Sep-16 00:59 UTC.
Position N 56°38' E 009°48'.

Length 88 m; draft 5.1 m.

Type: Ship. MMSI: 314189000.

Date/timePositionNaut miles runAvg speedWind from/ knotsBaromVisibWave heightAir tempDewpointWater temp
2014-Sep-16 00:15N 56°38' E 009°48'0 0.0
2014-Sep-15 12:16N 56°38' E 009°48'65 1.5
2014-Sep-13 15:13N 57°36' E 010°44'141 7.6
2014-Sep-12 20:33N 58°04' E 006°24'7 7.4
2014-Sep-12 19:33N 58°09' E 006°13'8 8.1
2014-Sep-12 18:33N 58°14' E 006°01'8 8.2
2014-Sep-12 17:33N 58°19' E 005°49'8 8.3
2014-Sep-12 16:33N 58°25' E 005°37'11 8.3
2014-Sep-12 15:16N 58°34' E 005°25'8 9.4
2014-Sep-12 14:22N 58°41' E 005°17'8 9.4
2014-Sep-12 13:33N 58°47' E 005°10'9 9.1
2014-Sep-12 12:33N 58°55' E 005°01'  
2014-Sep-09 20:30N 59°13' E 005°00'6 6.6
2014-Sep-09 19:33N 59°08' E 005°08'9 9.2
2014-Sep-09 18:33N 59°07' E 005°26'7 7.3
2014-Sep-09 17:33N 59°02' E 005°36'6 6.3
2014-Sep-09 16:33N 59°00' E 005°48'4 3.7
2014-Sep-09 15:32N 58°57' E 005°45'0 0.0
2014-Sep-09 14:31N 58°57' E 005°45'0 0.0
2014-Sep-09 13:33N 58°57' E 005°45'0 0.0
2014-Sep-09 12:33N 58°57' E 005°45'0 0.0
2014-Sep-09 11:32N 58°57' E 005°45'0 0.0
2014-Sep-09 10:32N 58°57' E 005°45'0 0.0
2014-Sep-09 09:33N 58°57' E 005°45'0 0.0
2014-Sep-09 08:32N 58°57' E 005°45'0 0.0
2014-Sep-09 07:32N 58°57' E 005°45'0 0.0
2014-Sep-09 06:32N 58°57' E 005°45'0 0.0
2014-Sep-09 05:31N 58°57' E 005°45'0 0.0
2014-Sep-09 04:31N 58°57' E 005°45'0 0.0
2014-Sep-09 03:31N 58°57' E 005°45'0 0.0
2014-Sep-09 02:33N 58°57' E 005°45'0 0.0
2014-Sep-09 01:32N 58°57' E 005°45'0 0.0
2014-Sep-09 00:31N 58°57' E 005°45'0 0.0
2014-Sep-08 23:32N 58°57' E 005°45'0 0.0
2014-Sep-08 22:33N 58°57' E 005°45'0 0.0
2014-Sep-08 21:31N 58°57' E 005°45'0 0.0
2014-Sep-08 20:33N 58°57' E 005°45'0 0.0
2014-Sep-08 19:32N 58°57' E 005°45'0 0.0
2014-Sep-08 18:32N 58°57' E 005°45'0 0.0
2014-Sep-08 17:33N 58°57' E 005°45'0 0.1
2014-Sep-08 16:32N 58°57' E 005°45'0 0.0
2014-Sep-08 15:31N 58°57' E 005°45'0 0.0
2014-Sep-08 14:31N 58°57' E 005°45'0 0.0
2014-Sep-08 13:33N 58°57' E 005°45'0 0.0
2014-Sep-08 12:33N 58°57' E 005°45'0 0.0
2014-Sep-08 11:32N 58°57' E 005°45'0 0.0
2014-Sep-08 10:31N 58°57' E 005°45'0 0.0
2014-Sep-08 09:31N 58°57' E 005°45'0 0.0
2014-Sep-08 08:33N 58°57' E 005°45'0 0.0
2014-Sep-08 07:33N 58°57' E 005°45'0 0.0
2014-Sep-08 06:32N 58°57' E 005°45'0 0.0
2014-Sep-08 05:31N 58°57' E 005°45'0 0.0
2014-Sep-08 04:31N 58°57' E 005°45'0 0.0
2014-Sep-08 03:33N 58°57' E 005°45'0 0.0
2014-Sep-08 02:33N 58°57' E 005°45'0 0.0
2014-Sep-08 01:32N 58°57' E 005°45'0 0.0
2014-Sep-08 00:31N 58°57' E 005°45'0 0.0
2014-Sep-07 23:31N 58°57' E 005°45'0 0.0
2014-Sep-07 22:33N 58°57' E 005°45'0 0.0
2014-Sep-07 21:33N 58°57' E 005°45'0 0.0
2014-Sep-07 20:32N 58°57' E 005°45'0 0.0
2014-Sep-07 19:31N 58°57' E 005°45'0 0.0
2014-Sep-07 18:31N 58°57' E 005°45'0 0.0
2014-Sep-07 17:33N 58°57' E 005°45'0 0.0
2014-Sep-07 16:33N 58°57' E 005°45'0 0.0
2014-Sep-07 15:32N 58°57' E 005°45'1 1.0
2014-Sep-07 14:33N 58°58' E 005°46'8 7.6
2014-Sep-07 13:33N 59°01' E 005°34'1010.5
2014-Sep-07 12:34N 58°51' E 005°31'8 7.6
2014-Sep-07 11:33N 58°44' E 005°25'18 8.5
2014-Sep-07 09:28N 58°27' E 005°33'9 9.8
2014-Sep-07 08:33N 58°19' E 005°43'1010.4
2014-Sep-07 07:33N 58°13' E 005°57'1111.2
2014-Sep-07 06:33N 58°05' E 006°13'85 8.2
2014-Sep-06 20:08N 58°15' E 008°54'59 9.7
2014-Sep-06 14:07N 58°54' E 010°18'5 9.7
2014-Sep-06 13:33N 58°57' E 010°26'9 9.0
2014-Sep-06 12:33N 59°04' E 010°38'7 7.3
2014-Sep-06 11:33N 59°11' E 010°40'1111.2
2014-Sep-06 10:33N 59°22' E 010°34'8 1.5
2014-Sep-06 05:29N 59°28' E 010°41'0 0.0
2014-Sep-06 04:13N 59°28' E 010°41'0 0.0
2014-Sep-06 03:31N 59°28' E 010°41'0 0.0
2014-Sep-06 02:33N 59°28' E 010°41'0 0.0
2014-Sep-06 01:17N 59°28' E 010°41'  

Dump ship's entire track history